Time;durP1;ratioP1;P1;durP2;ratioP2;P2;SDS_P1;SDS_P2;PMS_P1;PMS_P2;Temp;Humidity;BMP_temperature;BMP_pressure;BME280_temperature;BME280_humidity;BME280_pressure;Samples;Min_cycle;Max_cycle;Signal;HPM_P1;HPM_P2
2021/01/30 00:00:10;;;;;;;;;;;14.20;99.90;;;13.53;100.00;101287.19;5052526;28;20306;-64
2021/01/30 00:02:38;;;;;;;;;;;14.20;99.90;;;13.55;100.00;101291.25;5052675;28;20313;-64
2021/01/30 00:05:07;;;;;;;;;;;14.30;99.90;;;13.56;100.00;101297.44;5052999;28;19925;-64
2021/01/30 00:07:34;;;;;;;;;;;14.30;99.90;;;13.58;100.00;101311.56;5052234;28;20543;-64
2021/01/30 00:10:01;;;;;;;;;;;14.30;99.90;;;13.59;100.00;101313.97;5052230;28;20034;-64
2021/01/30 00:12:28;;;;;;;;;;;14.30;99.90;;;13.62;100.00;101318.81;5052614;28;19931;-64
2021/01/30 00:14:56;;;;;;;;;;;14.30;99.90;;;13.63;100.00;101327.78;5052450;28;19979;-64
2021/01/30 00:17:23;;;;;;;;;;;14.30;99.90;;;13.65;100.00;101317.41;5052124;28;20329;-64
2021/01/30 00:19:51;;;;;;;;;;;14.30;99.90;;;13.66;100.00;101317.13;5052135;28;20500;-64
2021/01/30 00:22:20;;;;;;;;;;;14.40;99.90;;;13.68;100.00;101322.25;5052202;28;19940;-64
2021/01/30 00:24:49;;;;;;;;;;;14.40;99.90;;;13.67;100.00;101332.34;5052528;28;19924;-64
2021/01/30 00:27:19;;;;;;;;;;;14.40;99.90;;;13.69;100.00;101329.31;5052061;28;19932;-64
2021/01/30 00:29:46;;;;;;;;;;;14.40;99.90;;;13.70;100.00;101330.94;5052205;28;19925;-64
2021/01/30 00:32:14;;;;;;;;;;;14.40;99.90;;;13.70;100.00;101336.38;5052097;28;19924;-64
2021/01/30 00:34:42;;;;;;;;;;;14.40;99.90;;;13.74;100.00;101342.00;5052467;28;19932;-64
2021/01/30 00:37:12;;;;;;;;;;;14.40;99.90;;;13.74;100.00;101331.91;5051989;28;20050;-64
2021/01/30 00:39:40;;;;;;;;;;;14.50;99.90;;;13.77;100.00;101323.16;5052145;28;19929;-64
2021/01/30 00:42:08;;;;;;;;;;;14.40;99.90;;;13.79;100.00;101333.75;5052006;28;20286;-64
2021/01/30 00:44:36;;;;;;;;;;;14.50;99.90;;;13.78;100.00;101324.78;5052415;28;19925;-64
2021/01/30 00:47:04;;;;;;;;;;;14.50;99.90;;;13.80;100.00;101313.63;5051735;28;19925;-64
2021/01/30 00:49:32;;;;;;;;;;;14.50;99.90;;;13.81;100.00;101310.59;5051899;28;19933;-64
2021/01/30 00:51:59;;;;;;;;;;;14.50;99.90;;;13.80;100.00;101308.97;5052216;28;19932;-64
2021/01/30 00:54:27;;;;;;;;;;;14.50;99.90;;;13.80;100.00;101305.47;5052172;28;19932;-64
2021/01/30 00:56:56;;;;;;;;;;;14.50;99.90;;;13.81;100.00;101315.22;5051736;28;20340;-64
2021/01/30 00:59:24;;;;;;;;;;;14.50;99.90;;;13.81;100.00;101335.06;5051868;28;20370;-64
2021/01/30 01:01:52;;;;;;;;;;;14.50;99.90;;;13.82;100.00;101338.59;5051732;28;19972;-64
2021/01/30 01:04:19;;;;;;;;;;;14.50;99.90;;;13.83;100.00;101340.22;5051941;28;19924;-64
2021/01/30 01:06:47;;;;;;;;;;;14.50;99.90;;;13.84;100.00;101341.81;5051546;28;19924;-64
2021/01/30 01:09:15;;;;;;;;;;;14.50;99.90;;;13.83;100.00;101332.84;5051662;28;19932;-63
2021/01/30 01:11:45;;;;;;;;;;;14.50;99.90;;;13.84;100.00;101323.59;5051946;28;19925;-63
2021/01/30 01:14:13;;;;;;;;;;;14.50;99.90;;;13.85;100.00;101316.25;5051785;28;19935;-62
2021/01/30 01:16:40;;;;;;;;;;;14.50;99.90;;;13.86;100.00;101321.38;5051482;28;19935;-63
2021/01/30 01:19:08;;;;;;;;;;;14.60;99.90;;;13.89;100.00;101318.06;5051477;28;19932;-63
2021/01/30 01:21:35;;;;;;;;;;;14.60;99.90;;;13.88;100.00;101316.47;5051702;28;19928;-62
2021/01/30 01:24:02;;;;;;;;;;;14.60;99.90;;;13.89;100.00;101312.63;5051830;28;19925;-63
2021/01/30 01:26:29;;;;;;;;;;;14.60;99.90;;;13.91;100.00;101315.06;5053133;28;19932;-63
2021/01/30 01:28:57;;;;;;;;;;;14.60;99.90;;;13.92;100.00;101312.03;5055221;28;19925;-63
2021/01/30 01:31:25;;;;;;;;;;;14.60;99.90;;;13.94;100.00;101306.31;5055924;28;20304;-62
2021/01/30 01:33:52;;;;;;;;;;;14.70;99.90;;;13.94;100.00;101306.31;5055606;28;19925;-62
2021/01/30 01:36:20;;;;;;;;;;;14.60;99.90;;;13.96;100.00;101320.41;5055343;28;20271;-63
2021/01/30 01:38:48;;;;;;;;;;;14.70;99.90;;;13.99;100.00;101314.34;5055371;28;19925;-64
2021/01/30 01:41:15;;;;;;;;;;;14.70;99.90;;;14.02;100.00;101311.03;5055583;28;19935;-64
2021/01/30 01:43:42;;;;;;;;;;;14.70;99.90;;;14.01;100.00;101307.50;5055296;28;19925;-62
2021/01/30 01:46:22;;;;;;;;;;;14.70;99.90;;;14.03;100.00;101313.47;5055466;28;19925;-62
2021/01/30 01:48:54;;;;;;;;;;;14.70;99.90;;;14.04;100.00;101322.44;5055081;28;20301;-62
2021/01/30 01:51:26;;;;;;;;;;;14.70;99.90;;;14.06;100.00;101307.44;5055567;28;19924;-64
2021/01/30 01:53:54;;;;;;;;;;;14.70;99.90;;;14.05;100.00;101289.50;5054829;28;19932;-62
2021/01/30 01:56:24;;;;;;;;;;;14.80;99.90;;;14.06;100.00;101284.88;5054901;28;19936;-63
2021/01/30 01:58:54;;;;;;;;;;;14.80;99.90;;;14.06;100.00;101282.94;5054811;28;20390;-62
2021/01/30 02:01:22;;;;;;;;;;;14.80;99.90;;;14.05;100.00;101292.22;5055331;28;20294;-63
2021/01/30 02:03:54;;;;;;;;;;;14.70;99.90;;;14.04;100.00;101282.44;5054807;28;19925;-62
2021/01/30 02:06:21;;;;;;;;;;;14.70;99.90;;;14.04;100.00;101270.78;5054741;28;19936;-63
2021/01/30 02:08:49;;;;;;;;;;;14.70;99.90;;;14.04;100.00;101287.09;5054610;28;19925;-62
2021/01/30 02:11:16;;;;;;;;;;;14.70;99.90;;;14.03;100.00;101277.31;5055076;28;19925;-62
2021/01/30 02:13:45;;;;;;;;;;;14.70;99.90;;;14.02;100.00;101273.78;5055021;28;19932;-62
2021/01/30 02:16:19;;;;;;;;;;;14.70;99.90;;;14.04;100.00;101260.69;5054563;28;19979;-62
2021/01/30 02:18:55;;;;;;;;;;;14.70;99.90;;;14.04;100.00;101252.53;5054427;28;19925;-63
2021/01/30 02:21:38;;;;;;;;;;;14.70;99.90;;;14.03;100.00;101259.09;5054898;28;20444;-62
2021/01/30 02:24:29;;;;;;;;;;;14.70;99.90;;;14.03;100.00;101241.97;5054587;28;19952;-62
2021/01/30 02:27:07;;;;;;;;;;;14.70;99.90;;;14.00;100.00;101248.81;5054177;28;19951;-62
2021/01/30 02:30:09;;;;;;;;;;;14.70;99.90;;;13.98;100.00;101255.66;5054202;28;19925;-62
2021/01/30 02:32:46;;;;;;;;;;;14.70;99.90;;;13.96;100.00;101253.22;5054453;28;19931;-62
2021/01/30 02:35:29;;;;;;;;;;;14.60;99.90;;;13.99;100.00;101235.50;5054688;28;19929;-62
2021/01/30 02:38:00;;;;;;;;;;;14.60;99.90;;;14.00;100.00;101231.69;5053728;28;19933;-62
2021/01/30 02:40:29;;;;;;;;;;;14.60;99.90;;;13.98;100.00;101231.97;5054403;28;20317;-63
2021/01/30 02:42:59;;;;;;;;;;;14.70;99.90;;;13.98;100.00;101231.97;5054036;28;19929;-62
2021/01/30 02:45:28;;;;;;;;;;;14.70;99.90;;;14.01;100.00;101233.31;5054516;28;19925;-62
2021/01/30 02:48:00;;;;;;;;;;;14.70;99.90;;;14.02;100.00;101235.72;5053496;28;19932;-63
2021/01/30 02:50:30;;;;;;;;;;;14.70;99.90;;;14.04;100.00;101233.47;5054171;28;19925;-62
2021/01/30 02:53:00;;;;;;;;;;;14.70;99.90;;;14.07;100.00;101227.44;5054009;28;19932;-62
2021/01/30 02:55:28;;;;;;;;;;;14.70;99.90;;;14.08;100.00;101215.47;5054459;28;19925;-64
2021/01/30 02:57:56;;;;;;;;;;;14.80;99.90;;;14.06;100.00;101223.13;5053357;28;19936;-63
2021/01/30 03:00:25;;;;;;;;;;;14.70;99.90;;;14.09;100.00;101224.44;5053967;28;19926;-62
2021/01/30 03:02:52;;;;;;;;;;;14.70;99.90;;;14.12;100.00;101223.81;5053677;28;19949;-62
2021/01/30 03:05:20;;;;;;;;;;;14.80;99.90;;;14.11;100.00;101225.72;5053795;28;19929;-62
2021/01/30 03:08:22;;;;;;;;;;;14.80;99.90;;;14.12;100.00;101227.34;5053360;28;19925;-62
2021/01/30 03:10:54;;;;;;;;;;;14.80;99.90;;;14.14;100.00;101222.41;5046333;28;19925;-63
2021/01/30 03:13:27;;;;;;;;;;;14.80;99.90;;;14.15;100.00;101224.03;5053391;28;19932;-62
2021/01/30 03:15:58;;;;;;;;;;;14.80;99.90;;;14.17;100.00;101227.25;5053625;28;19954;-65
2021/01/30 03:18:31;;;;;;;;;;;14.80;99.90;;;14.19;100.00;101219.56;5052929;28;19925;-64
2021/01/30 03:20:58;;;;;;;;;;;14.90;99.90;;;14.20;100.00;101223.09;5053800;28;19925;-62
2021/01/30 03:23:26;;;;;;;;;;;14.90;99.90;;;14.21;100.00;101217.38;5053453;28;19935;-64
2021/01/30 03:25:55;;;;;;;;;;;14.90;99.90;;;14.22;100.00;101215.47;5053468;28;19925;-62
2021/01/30 03:28:22;;;;;;;;;;;14.90;99.90;;;14.25;100.00;101212.13;5052996;28;19928;-64
2021/01/30 03:30:49;;;;;;;;;;;14.90;99.90;;;14.26;100.00;101215.66;5053556;28;19925;-62
2021/01/30 03:33:16;;;;;;;;;;;14.90;99.90;;;14.25;100.00;101209.41;5053249;28;19932;-62
2021/01/30 03:35:44;;;;;;;;;;;14.90;99.90;;;14.27;100.00;101212.63;5053293;28;19929;-62
2021/01/30 03:38:11;;;;;;;;;;;14.90;99.90;;;14.29;100.00;101212.34;5052823;28;20370;-62
2021/01/30 03:40:40;;;;;;;;;;;14.90;99.90;;;14.29;100.00;101207.69;5053324;28;19931;-62
2021/01/30 03:43:08;;;;;;;;;;;15.00;99.90;;;14.30;100.00;101203.06;5053103;28;20653;-62
2021/01/30 03:45:35;;;;;;;;;;;15.00;99.90;;;14.31;100.00;101200.03;5053277;28;19925;-62
2021/01/30 03:48:02;;;;;;;;;;;15.00;99.90;;;14.31;100.00;101191.06;5052637;28;19979;-62
2021/01/30 03:50:29;;;;;;;;;;;15.00;99.90;;;14.31;100.00;101189.16;5052697;28;19932;-62
2021/01/30 03:52:57;;;;;;;;;;;15.00;99.90;;;14.32;100.00;101190.75;5052836;28;19963;-62
2021/01/30 03:55:25;;;;;;;;;;;15.00;99.90;;;14.34;100.00;101194.03;5052910;28;20390;-63
2021/01/30 03:57:53;;;;;;;;;;;15.00;99.90;;;14.33;100.00;101191.59;5052544;28;20266;-63
2021/01/30 04:00:23;;;;;;;;;;;15.00;99.90;;;14.35;100.00;101195.59;5052895;28;19925;-63
2021/01/30 04:02:50;;;;;;;;;;;15.00;99.90;;;14.34;100.00;101193.22;5052839;28;20366;-62
2021/01/30 04:05:20;;;;;;;;;;;15.10;99.90;;;14.34;100.00;101183.13;5052685;28;20393;-63
2021/01/30 04:07:47;;;;;;;;;;;15.00;99.90;;;14.35;100.00;101189.38;5052268;28;20374;-64
2021/01/30 04:10:18;;;;;;;;;;;15.00;99.90;;;14.34;100.00;101187.75;5052578;28;19940;-64
2021/01/30 04:12:45;;;;;;;;;;;15.00;99.90;;;14.35;100.00;101178.50;5052685;28;19925;-64
2021/01/30 04:15:15;;;;;;;;;;;15.00;99.90;;;14.34;100.00;101185.03;5052984;28;19952;-64
2021/01/30 04:17:42;;;;;;;;;;;15.00;99.90;;;14.35;100.00;101190.16;5051896;28;19929;-64
2021/01/30 04:20:11;;;;;;;;;;;15.00;99.90;;;14.35;100.00;101183.94;5052044;28;19932;-64
2021/01/30 04:22:38;;;;;;;;;;;15.00;99.90;;;14.35;100.00;101183.94;5052236;28;19931;-64
2021/01/30 04:25:07;;;;;;;;;;;15.00;99.90;;;14.37;100.00;101177.09;5052545;28;19925;-64
2021/01/30 04:27:34;;;;;;;;;;;15.00;99.90;;;14.38;100.00;101167.00;5051994;28;19975;-64
2021/01/30 04:30:01;;;;;;;;;;;15.10;99.90;;;14.39;100.00;101166.69;5051731;28;19925;-64
2021/01/30 04:32:29;;;;;;;;;;;15.10;99.90;;;14.39;100.00;101163.97;5052298;28;19978;-64
2021/01/30 04:34:56;;;;;;;;;;;15.10;99.90;;;14.39;100.00;101168.59;5052341;28;19928;-64
2021/01/30 04:37:23;;;;;;;;;;;15.10;99.90;;;14.40;100.00;101181.09;5051905;28;19928;-64
2021/01/30 04:39:50;;;;;;;;;;;15.10;99.90;;;14.40;100.00;101173.75;5051885;28;19929;-64
2021/01/30 04:42:21;;;;;;;;;;;15.10;99.90;;;14.42;100.00;101184.31;5052265;28;19982;-64
2021/01/30 04:44:55;;;;;;;;;;;15.10;99.90;;;14.40;100.00;101179.19;5052090;28;20283;-64
2021/01/30 04:47:32;;;;;;;;;;;15.10;99.90;;;14.42;100.00;101176.16;5051890;28;19936;-64
2021/01/30 04:50:04;;;;;;;;;;;15.10;99.90;;;14.41;100.00;101188.16;5051725;28;20350;-64
2021/01/30 04:52:43;;;;;;;;;;;15.10;99.90;;;14.41;100.00;101188.94;5052237;28;19948;-64
2021/01/30 04:55:19;;;;;;;;;;;15.10;99.90;;;14.41;100.00;101183.50;5052263;28;19929;-64
2021/01/30 04:57:57;;;;;;;;;;;15.10;99.90;;;14.42;100.00;101176.16;5051645;28;19933;-64
2021/01/30 05:00:41;;;;;;;;;;;15.10;99.90;;;14.40;100.00;101181.91;5051946;28;19924;-64
2021/01/30 05:03:23;;;;;;;;;;;15.10;99.90;;;14.38;100.00;101192.28;5056476;28;19928;-64
2021/01/30 05:05:53;;;;;;;;;;;15.10;99.90;;;14.39;100.00;101201.25;5055674;28;20370;-64
2021/01/30 05:08:24;;;;;;;;;;;15.10;99.90;;;14.39;100.00;101209.41;5055730;28;19929;-64
2021/01/30 05:10:55;;;;;;;;;;;15.10;99.90;;;14.39;100.00;101202.06;5056055;28;19929;-64
2021/01/30 05:13:25;;;;;;;;;;;15.10;99.90;;;14.40;100.00;101191.97;5056190;28;19925;-64
2021/01/30 05:15:55;;;;;;;;;;;15.10;99.90;;;14.39;100.00;101191.19;5055666;28;20505;-64
2021/01/30 05:18:27;;;;;;;;;;;15.10;99.90;;;14.40;100.00;101189.25;5055253;28;20374;-64
2021/01/30 05:20:58;;;;;;;;;;;15.10;99.90;;;14.40;100.00;101191.97;5055920;28;20027;-64
2021/01/30 05:23:26;;;;;;;;;;;15.10;99.90;;;14.40;100.00;101190.06;5055924;28;19998;-64
2021/01/30 05:25:59;;;;;;;;;;;15.10;99.90;;;14.40;100.00;101187.34;5055686;28;20329;-62
2021/01/30 05:28:33;;;;;;;;;;;15.10;99.90;;;14.41;100.00;101193.59;5055387;28;19925;-64
2021/01/30 05:31:12;;;;;;;;;;;15.10;99.90;;;14.43;100.00;101196.81;5055689;28;20265;-64
2021/01/30 05:34:01;;;;;;;;;;;15.10;99.90;;;14.42;100.00;101200.63;5055623;28;19932;-64
2021/01/30 05:36:34;;;;;;;;;;;15.10;99.90;;;14.42;100.00;101197.91;5055165;28;19936;-64
2021/01/30 05:39:20;;;;;;;;;;;15.10;99.90;;;14.43;100.00;101192.19;5055642;28;19932;-64
2021/01/30 05:41:56;;;;;;;;;;;15.10;99.90;;;14.46;100.00;101190.75;5055606;28;19966;-64
2021/01/30 05:44:27;;;;;;;;;;;15.10;99.90;;;14.46;100.00;101196.19;5054262;28;19932;-64
2021/01/30 05:46:55;;;;;;;;;;;15.10;99.90;;;14.47;100.00;101205.97;5054986;28;19979;-64
2021/01/30 05:49:27;;;;;;;;;;;15.20;99.90;;;14.48;100.00;101205.66;5055179;28;19935;-64
2021/01/30 05:51:59;;;;;;;;;;;15.20;99.90;;;14.47;100.00;101209.47;5055331;28;19924;-64
2021/01/30 05:54:26;;;;;;;;;;;15.20;99.90;;;14.48;100.00;101207.56;5055388;28;19925;-65
2021/01/30 05:56:54;;;;;;;;;;;15.20;99.90;;;14.50;100.00;101202.66;5054674;28;20264;-64
2021/01/30 05:59:25;;;;;;;;;;;15.20;99.90;;;14.50;100.00;101203.44;5055050;28;19925;-64
2021/01/30 06:01:53;;;;;;;;;;;15.20;99.90;;;14.52;100.00;101205.84;5055203;28;19939;-64
2021/01/30 06:04:27;;;;;;;;;;;15.20;99.90;;;14.54;100.00;101204.44;5055380;28;19925;-64
2021/01/30 06:06:55;;;;;;;;;;;15.20;99.90;;;14.54;100.00;101198.19;5054476;28;19925;-64
2021/01/30 06:09:34;;;;;;;;;;;15.30;99.90;;;14.56;100.00;101190.53;5055049;28;19948;-64
2021/01/30 06:12:03;;;;;;;;;;;15.30;99.90;;;14.56;100.00;101199.47;5054543;28;20528;-64
2021/01/30 06:14:33;;;;;;;;;;;15.30;99.90;;;14.58;100.00;101207.34;5054953;28;20367;-64
2021/01/30 06:17:00;;;;;;;;;;;15.30;99.90;;;14.58;100.00;101200.00;5054241;28;20271;-64
2021/01/30 06:19:31;;;;;;;;;;;15.30;99.90;;;14.60;100.00;101205.13;5054589;28;20382;-64
2021/01/30 06:22:22;;;;;;;;;;;15.30;99.90;;;14.59;100.00;101200.81;5054774;28;19929;-64
2021/01/30 06:24:49;;;;;;;;;;;15.30;99.90;;;14.59;100.00;101201.59;5054748;28;20043;-64
2021/01/30 06:27:29;;;;;;;;;;;15.30;99.90;;;14.60;100.00;101213.28;5054169;28;19929;-64
2021/01/30 06:29:59;;;;;;;;;;;15.30;99.90;;;14.59;100.00;101190.69;5054000;28;20279;-64
2021/01/30 06:32:31;;;;;;;;;;;15.30;99.90;;;14.60;100.00;101191.50;5054589;28;19925;-64
2021/01/30 06:35:13;;;;;;;;;;;15.30;99.90;;;14.61;100.00;101190.41;5054718;28;19928;-64
2021/01/30 06:37:45;;;;;;;;;;;15.40;99.90;;;14.61;100.00;101198.56;5053966;28;19931;-64
2021/01/30 06:40:19;;;;;;;;;;;15.30;99.90;;;14.61;100.00;101191.22;5054137;28;20333;-64
2021/01/30 06:42:47;;;;;;;;;;;15.30;99.90;;;14.59;100.00;101206.25;5054252;28;19929;-64
2021/01/30 06:45:25;;;;;;;;;;;15.30;99.90;;;14.59;100.00;101201.59;5054523;28;20290;-64
2021/01/30 06:47:53;;;;;;;;;;;15.30;99.90;;;14.55;100.00;101208.78;5053807;28;20397;-64
2021/01/30 06:50:32;;;;;;;;;;;15.30;99.90;;;14.52;100.00;101216.75;5053977;28;19991;-64
2021/01/30 06:53:25;;;;;;;;;;;15.20;99.90;;;14.45;100.00;101217.16;5053996;28;19925;-64
2021/01/30 06:55:52;;;;;;;;;;;15.20;99.90;;;14.39;100.00;101223.81;5044250;28;20533;-64
2021/01/30 06:58:28;;;;;;;;;;;15.10;99.90;;;14.35;100.00;101224.75;5053658;28;19924;-64
2021/01/30 07:01:08;;;;;;;;;;;15.10;99.90;;;14.28;100.00;101221.59;5053898;28;19932;-64
2021/01/30 07:03:51;;;;;;;;;;;15.00;99.90;;;14.23;100.00;101219.78;5053996;28;19931;-64
2021/01/30 07:06:24;;;;;;;;;;;14.90;99.90;;;14.20;100.00;101225.81;5053493;28;19971;-64
2021/01/30 07:09:04;;;;;;;;;;;14.90;99.90;;;14.16;100.00;101220.19;5053481;28;19936;-64
2021/01/30 07:11:53;;;;;;;;;;;14.90;99.90;;;14.13;100.00;101231.66;5053983;28;19932;-64
2021/01/30 07:14:30;;;;;;;;;;;14.90;99.90;;;14.11;100.00;101230.38;5048460;28;19986;-64
2021/01/30 07:17:01;;;;;;;;;;;14.80;99.90;;;14.07;100.00;101229.38;5053240;28;19932;-64
2021/01/30 07:19:36;;;;;;;;;;;14.80;99.90;;;14.03;100.00;101222.94;5053922;28;19936;-64
2021/01/30 07:22:09;;;;;;;;;;;14.70;99.90;;;13.98;100.00;101223.03;5053699;28;19924;-64
2021/01/30 07:24:42;;;;;;;;;;;14.70;99.90;;;13.94;100.00;101216.59;5052930;28;19929;-64
2021/01/30 07:27:15;;;;;;;;;;;14.70;99.90;;;13.88;100.00;101204.19;5053207;28;20028;-64
2021/01/30 07:29:47;;;;;;;;;;;14.60;99.90;;;13.84;100.00;101212.16;5053481;28;20263;-64
2021/01/30 07:32:20;;;;;;;;;;;14.60;99.90;;;13.81;100.00;101222.81;5053552;28;19937;-64
2021/01/30 07:34:59;;;;;;;;;;;14.50;99.90;;;13.76;100.00;101215.56;5053843;28;19940;-64
2021/01/30 07:37:35;;;;;;;;;;;14.50;99.90;;;13.77;100.00;101203.56;5052923;28;19929;-64
2021/01/30 07:40:06;;;;;;;;;;;14.40;99.90;;;13.76;100.00;101196.56;5052942;28;20283;-64
2021/01/30 07:42:38;;;;;;;;;;;14.50;99.90;;;13.76;100.00;101196.56;5053154;28;19929;-64
2021/01/30 07:45:12;;;;;;;;;;;14.40;99.90;;;13.75;100.00;101200.38;5053410;28;19924;-64
2021/01/30 07:47:43;;;;;;;;;;;14.50;99.90;;;13.77;100.00;101197.38;5052672;28;19929;-64
2021/01/30 07:50:14;;;;;;;;;;;14.40;99.90;;;13.77;100.00;101197.38;5052674;28;19932;-64
2021/01/30 07:53:01;;;;;;;;;;;14.50;99.90;;;13.79;100.00;101190.50;5053102;28;19936;-64
2021/01/30 07:55:29;;;;;;;;;;;14.50;99.90;;;13.84;100.00;101201.28;5053313;28;19947;-64
2021/01/30 07:58:26;;;;;;;;;;;14.50;99.90;;;13.88;100.00;101210.44;5052505;28;19929;-64
2021/01/30 08:01:11;;;;;;;;;;;14.60;99.90;;;13.93;100.00;101204.91;5052725;28;19924;-64
2021/01/30 08:03:54;;;;;;;;;;;14.60;99.90;;;13.95;100.00;101223.63;5052862;28;19924;-64
2021/01/30 08:06:30;;;;;;;;;;;14.70;99.90;;;13.96;100.00;101227.94;5052465;28;19929;-64
2021/01/30 08:09:03;;;;;;;;;;;14.60;99.90;;;13.94;100.00;101235.63;5052330;28;19979;-64
2021/01/30 08:11:33;;;;;;;;;;;14.60;99.90;;;13.95;100.00;101239.94;5052888;28;20386;-64
2021/01/30 08:14:27;;;;;;;;;;;14.70;99.90;;;13.93;100.00;101231.28;5052185;28;20390;-64
2021/01/30 08:17:00;;;;;;;;;;;14.70;99.90;;;13.95;100.00;101248.13;5052219;28;19928;-64
2021/01/30 08:19:36;;;;;;;;;;;14.70;99.90;;;13.94;100.00;101243.78;5052233;28;19925;-64
2021/01/30 08:22:07;;;;;;;;;;;14.60;99.90;;;13.97;100.00;101245.88;5052656;28;20366;-63
2021/01/30 08:24:45;;;;;;;;;;;14.70;99.90;;;13.96;100.00;101241.53;5052645;28;19929;-64
2021/01/30 08:27:17;;;;;;;;;;;14.60;99.90;;;13.93;100.00;101248.41;5052216;28;19994;-64
2021/01/30 08:29:46;;;;;;;;;;;14.60;99.90;;;13.91;100.00;101239.75;5051791;28;19952;-64
2021/01/30 08:32:35;;;;;;;;;;;14.60;99.90;;;13.92;100.00;101230.47;5052332;28;19933;-64
2021/01/30 08:35:50;;;;;;;;;;;14.60;99.90;;;13.90;100.00;101238.13;5052655;28;19924;-64
2021/01/30 08:38:37;;;;;;;;;;;14.60;99.90;;;13.93;100.00;101264.72;5051998;28;19929;-64
2021/01/30 08:41:25;;;;;;;;;;;14.60;99.90;;;13.97;100.00;101246.69;5051997;28;20287;-64
2021/01/30 08:43:53;;;;;;;;;;;14.70;99.90;;;14.08;100.00;101256.25;5051960;28;19928;-64
2021/01/30 08:46:25;;;;;;;;;;;14.70;99.90;;;14.19;100.00;101268.53;5052004;28;19928;-64
2021/01/30 08:49:04;;;;;;;;;;;14.80;99.90;;;14.30;100.00;101265.63;5051672;28;20594;-64
2021/01/30 08:51:31;;;;;;;;;;;14.90;99.90;;;14.44;100.00;101272.69;5052302;28;19979;-64
2021/01/30 08:53:59;;;;;;;;;;;15.00;99.90;;;14.61;100.00;101272.88;5052030;28;19929;-64
2021/01/30 08:56:49;;;;;;;;;;;15.10;99.90;;;14.61;100.00;101258.44;5052078;28;19978;-64
2021/01/30 08:59:41;;;;;;;;;;;15.20;99.90;;;14.60;100.00;101275.88;5051742;28;20274;-64
2021/01/30 09:02:10;;;;;;;;;;;15.20;99.90;;;14.62;100.00;101277.19;5052122;28;20382;-64
2021/01/30 09:04:44;;;;;;;;;;;15.20;99.90;;;14.66;100.00;101271.94;5051982;28;20333;-64
2021/01/30 09:07:36;;;;;;;;;;;15.20;99.90;;;14.75;100.00;101272.81;5051712;28;19931;-64
2021/01/30 09:10:39;;;;;;;;;;;15.30;99.90;;;14.82;100.00;101284.09;5051625;28;19978;-64
2021/01/30 09:13:12;;;;;;;;;;;15.40;99.90;;;14.78;100.00;101278.47;5052373;28;20332;-64
2021/01/30 09:16:09;;;;;;;;;;;15.40;99.90;;;14.76;100.00;101288.06;5052016;28;19929;-64
2021/01/30 09:18:50;;;;;;;;;;;15.40;99.90;;;14.81;100.00;101298.81;5051786;28;19929;-64
2021/01/30 09:21:23;;;;;;;;;;;15.40;99.90;;;14.97;100.00;101288.41;5051868;28;20002;-64
2021/01/30 09:23:58;;;;;;;;;;;15.50;99.90;;;15.12;100.00;101294.31;5051791;28;19978;-64
2021/01/30 09:26:30;;;;;;;;;;;15.60;99.90;;;15.23;100.00;101297.56;5051691;28;19939;-64
2021/01/30 09:29:01;;;;;;;;;;;15.80;99.90;;;15.31;100.00;101314.00;5051833;28;19940;-64
2021/01/30 09:31:29;;;;;;;;;;;15.80;99.90;;;15.52;100.00;101308.91;5051986;28;19978;-64
2021/01/30 09:34:04;;;;;;;;;;;15.90;99.90;;;15.70;100.00;101316.06;5051826;28;20374;-64
2021/01/30 09:36:34;;;;;;;;;;;16.10;99.90;;;15.87;100.00;101318.06;5051557;28;19925;-64
2021/01/30 09:39:03;;;;;;;;;;;16.30;99.90;;;15.93;100.00;101325.00;5051597;28;19982;-64
2021/01/30 09:41:32;;;;;;;;;;;16.40;99.90;;;15.91;100.00;101321.78;5051701;28;19932;-64
2021/01/30 09:44:10;;;;;;;;;;;16.40;99.90;;;15.95;100.00;101327.44;5051800;28;19925;-65
2021/01/30 09:46:39;;;;;;;;;;;16.40;99.90;;;15.98;100.00;101324.88;5051692;28;19967;-64
2021/01/30 09:49:10;;;;;;;;;;;16.50;99.90;;;16.15;100.00;101330.41;5055071;28;19929;-64
2021/01/30 09:51:42;;;;;;;;;;;16.60;99.90;;;16.33;100.00;101332.09;5055316;28;19928;-63
2021/01/30 09:54:13;;;;;;;;;;;16.80;99.90;;;16.42;100.00;101327.47;5055271;28;19925;-63
2021/01/30 09:56:40;;;;;;;;;;;16.90;99.90;;;16.52;100.00;101331.84;5055164;28;20317;-63
2021/01/30 09:59:08;;;;;;;;;;;17.00;99.90;;;16.51;100.00;101332.13;5054893;28;19932;-63
2021/01/30 10:01:37;;;;;;;;;;;17.00;99.90;;;16.56;100.00;101329.31;5055013;28;19932;-64
2021/01/30 10:04:15;;;;;;;;;;;17.00;99.90;;;16.63;100.00;101332.34;5055114;28;19929;-63
2021/01/30 10:06:43;;;;;;;;;;;17.20;99.90;;;16.69;100.00;101333.81;5054886;28;19928;-63
2021/01/30 10:09:13;;;;;;;;;;;17.20;99.90;;;16.76;100.00;101343.16;5055002;28;19925;-64
2021/01/30 10:11:41;;;;;;;;;;;17.30;99.90;;;16.73;100.00;101345.72;5054758;28;19933;-65
2021/01/30 10:14:10;;;;;;;;;;;17.30;99.90;;;16.73;100.00;101345.72;5055157;28;19925;-63
2021/01/30 10:16:37;;;;;;;;;;;17.30;99.90;;;16.73;100.00;101335.59;5054691;28;20329;-63
2021/01/30 10:19:11;;;;;;;;;;;17.30;99.90;;;16.79;100.00;101342.53;5054783;28;19963;-63
2021/01/30 10:21:43;;;;;;;;;;;17.40;99.90;;;16.81;100.00;101343.00;5054702;28;20298;-63
2021/01/30 10:24:15;;;;;;;;;;;17.40;99.90;;;16.98;100.00;101341.44;5054925;28;19925;-63
2021/01/30 10:26:42;;;;;;;;;;;17.50;99.90;;;17.13;100.00;101339.03;5054363;28;20295;-63
2021/01/30 10:29:12;;;;;;;;;;;17.70;99.90;;;17.19;100.00;101345.13;5054639;28;19925;-63
2021/01/30 10:31:42;;;;;;;;;;;17.80;99.90;;;17.05;100.00;101350.78;5054519;28;19925;-63
2021/01/30 10:34:17;;;;;;;;;;;17.70;99.90;;;16.77;100.00;101349.44;5054668;28;19925;-64
2021/01/30 10:36:50;;;;;;;;;;;17.50;99.90;;;16.68;100.00;101346.69;5054246;28;19924;-63
2021/01/30 10:39:17;;;;;;;;;;;17.40;99.90;;;16.62;100.00;101347.97;5054261;28;19933;-64
2021/01/30 10:41:44;;;;;;;;;;;17.30;99.90;;;16.70;100.00;101343.63;5054149;28;19929;-63
2021/01/30 10:44:25;;;;;;;;;;;17.30;99.90;;;16.60;100.00;101347.44;5054602;28;19932;-64
2021/01/30 10:46:57;;;;;;;;;;;17.30;99.90;;;16.53;100.00;101352.56;5054142;28;20432;-64
2021/01/30 10:49:25;;;;;;;;;;;17.20;99.90;;;16.65;100.00;101351.97;5054003;28;20366;-64
2021/01/30 10:52:07;;;;;;;;;;;17.30;99.90;;;16.53;100.00;101351.75;5053993;28;20374;-65
2021/01/30 10:54:34;;;;;;;;;;;17.20;99.90;;;16.50;100.00;101353.19;5054249;28;19932;-65
2021/01/30 10:57:03;;;;;;;;;;;17.10;99.90;;;16.61;100.00;101351.00;5053944;28;20378;-65
2021/01/30 10:59:42;;;;;;;;;;;17.20;99.90;;;16.78;100.00;101362.75;5052634;28;20271;-65
2021/01/30 11:02:39;;;;;;;;;;;17.30;99.90;;;16.82;100.00;101363.75;5053893;28;19931;-65
2021/01/30 11:05:23;;;;;;;;;;;17.40;99.90;;;16.82;100.00;101362.94;5054115;28;20356;-65
2021/01/30 11:07:53;;;;;;;;;;;17.40;99.90;;;16.96;100.00;101358.16;5051242;28;20515;-65
2021/01/30 11:10:25;;;;;;;;;;;17.50;99.90;;;17.06;100.00;101359.75;5053524;28;19924;-65
2021/01/30 11:12:53;;;;;;;;;;;17.60;99.90;;;16.99;98.59;101357.50;5053706;28;19925;-65
2021/01/30 11:15:23;;;;;;;;;;;17.50;99.90;;;16.96;99.23;101360.88;5054236;28;19925;-65
2021/01/30 11:17:52;;;;;;;;;;;17.50;99.90;;;16.86;100.00;101361.19;5053397;28;19929;-65
2021/01/30 11:20:41;;;;;;;;;;;17.40;99.90;;;16.80;100.00;101371.47;5053169;28;19928;-64
2021/01/30 11:23:08;;;;;;;;;;;17.50;99.90;;;16.93;100.00;101367.00;5053524;28;19925;-65
2021/01/30 11:25:39;;;;;;;;;;;17.40;99.90;;;17.03;100.00;101363.13;5053738;28;19925;-65